NCAR-RAP Real-Time Weather Data

Output produced by METARs form (17 September 2019  17:16 UTC)
found at http://weather.rap.ucar.edu/surface/
 
KALO 171654Z 15011KT 10SM CLR 28/19 A3007 RMK AO2 SLP176 T02830194
KALO 171554Z 14010KT 10SM CLR 27/18 A3008 RMK AO2 SLP180 T02670183
KALO 171454Z 15010KT 10SM CLR 23/17 A3008 RMK AO2 SLP182 T02330172 50000
KALO 171354Z 15009KT 10SM CLR 22/17 A3009 RMK AO2 SLP183 T02170172
KALO 171254Z 15009KT 10SM CLR 21/17 A3009 RMK AO2 SLP183 T02110172
KALO 171154Z 14008KT 10SM CLR 21/17 A3008 RMK AO2 SLP182 T02060167 10222 20206 53007
KALO 171054Z 15009KT 10SM CLR 21/17 A3008 RMK AO2 SLP179 T02060172
KALO 170954Z AUTO 15008KT 10SM CLR 21/17 A3007 RMK AO2 SLP176 T02060172
KALO 170854Z AUTO 15008KT 10SM CLR 21/18 A3006 RMK AO2 SLP174 T02110178 52003
KALO 170754Z AUTO 14010KT 10SM CLR 22/17 A3006 RMK AO2 SLP171 T02170172
KALO 170654Z AUTO 15008KT 10SM CLR 22/17 A3006 RMK AO2 SLP173 T02170172
KALO 170554Z AUTO 14006KT 10SM CLR 22/18 A3005 RMK AO2 SLP171 T02170178 10267 20217 403110161 51001
KALO 170454Z AUTO 15009KT 10SM CLR 23/18 A3005 RMK AO2 SLP170 T02280183
KALO 170354Z AUTO 13008KT 10SM CLR 23/18 A3006 RMK AO2 SLP172 T02330183
KALO 170254Z AUTO 13009KT 10SM CLR 24/18 A3005 RMK AO2 SLP171 T02440178 52005
KALO 170054Z AUTO 14010KT 10SM CLR 26/17 A3004 RMK AO2 SLP168 T02610172
KALO 162354Z 14008KT 10SM CLR 27/19 A3004 RMK AO2 SLP166 T02670189 10311 20267 58000
KALO 162254Z 15007KT 10SM CLR 28/18 A3004 RMK AO2 SLP167 T02830178
KALO 162154Z 14009KT 10SM CLR 29/17 A3004 RMK AO2 SLP165 T02890172
KALO 162054Z 14010KT 10SM CLR 29/18 A3004 RMK AO2 SLP166 T02940178 56014